Terminal Aerodrome Forecast
Issued by NWS

Home | Current Version | Previous Version | Text Only | Print | Product List | Glossary On
Versions: 1 2 3 4 5 6 7 8 9 10 11 12 13 14
707
FTUS43 KFGF 242329
TAFBJI
TAF
KBJI 242329Z 2500/2524 14010KT P6SM FEW250
     FM250900 15008KT P6SM BKN110
     FM251100 15008KT P6SM VCTS BKN025CB OVC050
     FM251700 19008KT P6SM BKN035=

USA.gov is the U.S. government's official web portal to all federal, state and local government web resources and services.